Flinterbothnia — PBLG — position and weather

sailwx.info

Track history (hours):
 
Tides and Currents Weather Stations Pressure Air Temp Water Temp Dewpoint Dewpoint Depression Visibility Wind Speed Wind Dir Waves Ship Positions

Flinterbothnia

Last reported at 2016-Feb-02 14:18 UTC. Time now 2016-Feb-06 11:42 UTC.
Position N 54°16' W 005°30'.

Length 82 m; draft 4.5 m.

Type: Cargo ship. MMSI: 244741000.

Date/timePositionNaut miles runAvg speedWind from/ knotsBaromVisibWave heightAir tempDewpointWater temp
2016-Feb-02 14:18N 54°16' W 005°30'7 9.7
2016-Feb-02 13:33N 54°22' W 005°24'1010.2
2016-Feb-02 12:33N 54°32' W 005°25'1110.8
2016-Feb-02 11:33N 54°42' W 005°32'1110.7
2016-Feb-02 10:33N 54°40' W 005°50'4 4.1
2016-Feb-02 09:31N 54°37' W 005°55'0 0.0
2016-Feb-02 07:09N 54°37' W 005°55'0 0.0
2016-Feb-02 05:33N 54°37' W 005°55'0 0.0
2016-Feb-02 03:21N 54°37' W 005°55'0 0.0
2016-Feb-02 02:33N 54°37' W 005°55'0 0.0
2016-Feb-02 01:27N 54°37' W 005°55'0 0.0
2016-Feb-01 15:09N 54°37' W 005°55'0 0.0
2016-Feb-01 09:33N 54°37' W 005°55'0 0.0
2016-Feb-01 08:14N 54°37' W 005°55'0 0.0
2016-Feb-01 07:31N 54°37' W 005°55'0 0.0
2016-Feb-01 06:32N 54°37' W 005°55'0 0.0
2016-Feb-01 05:31N 54°37' W 005°55'0 0.0
2016-Feb-01 04:30N 54°37' W 005°55'0 0.0
2016-Feb-01 03:32N 54°37' W 005°55'0 0.0
2016-Feb-01 02:33N 54°37' W 005°55'0 0.0
2016-Feb-01 01:31N 54°37' W 005°55'0 0.0
2016-Feb-01 00:32N 54°37' W 005°55'0 0.0
2016-Jan-31 23:31N 54°37' W 005°55'0 0.0
2016-Jan-31 22:29N 54°37' W 005°55'0 0.0
2016-Jan-31 20:09N 54°37' W 005°55'4 6.4
2016-Jan-31 19:33N 54°40' W 005°50'5 5.4
2016-Jan-31 18:33N 54°43' W 005°42'8 7.7
2016-Jan-31 17:33N 54°42' W 005°29'8 7.5
2016-Jan-31 16:33N 54°35' W 005°25'9 9.0
2016-Jan-31 15:33N 54°26' W 005°22'9 8.8
2016-Jan-31 14:33N 54°17' W 005°22'9 9.1
2016-Jan-31 13:33N 54°08' W 005°24'108 9.0
2016-Jan-31 01:33N 52°20' W 005°42'253 5.1
2016-Jan-28 23:33N 50°38' E 000°30'9 8.9
2016-Jan-28 22:33N 50°43' E 000°42'2311.3
2016-Jan-28 20:32N 50°56' E 001°11'1212.2
2016-Jan-28 19:33N 51°03' E 001°26'1111.0
2016-Jan-28 18:33N 51°10' E 001°40'1010.0
2016-Jan-28 17:33N 51°18' E 001°50'9 9.4
2016-Jan-28 16:34N 51°25' E 001°59'9 9.4
2016-Jan-28 15:33N 51°33' E 002°08'10 9.9
2016-Jan-28 14:33N 51°41' E 002°18'15410.1
2016-Jan-27 23:19N 53°45' E 004°46'15 8.5
2016-Jan-27 21:33N 53°59' E 004°56'8 7.2
2016-Jan-27 20:28N 54°06' E 005°01'6 6.7
2016-Jan-27 19:33N 54°12' E 005°07'5 5.4
2016-Jan-27 18:33N 54°16' E 005°12'6 4.6
2016-Jan-27 17:09N 54°22' E 005°17'255 5.9
2016-Jan-25 22:06N 57°40' E 010°04'5 9.4
2016-Jan-25 21:32N 57°43' E 010°13'10 9.7
2016-Jan-25 20:33N 57°46' E 010°30'13 9.1
2016-Jan-25 19:11N 57°46' E 010°54'610.3
2016-Jan-25 18:33N 57°43' E 011°05'1010.4
2016-Jan-25 17:33N 57°39' E 011°22'1010.2
2016-Jan-25 16:33N 57°35' E 011°40'0 0.3
2016-Jan-25 15:34N 57°35' E 011°41'0 0.0
2016-Jan-25 14:33N 57°35' E 011°41'6 6.2
2016-Jan-25 13:33N 57°29' E 011°41'1010.3
2016-Jan-25 12:33N 57°19' E 011°48'7310.5
2016-Jan-25 05:34N 56°10' E 012°30'1010.0
2016-Jan-25 04:33N 56°01' E 012°40'1010.0
2016-Jan-25 03:34N 55°51' E 012°43'1010.4
2016-Jan-25 02:33N 55°41' E 012°41'1010.1
2016-Jan-25 01:33N 55°31' E 012°43'1110.7
2016-Jan-25 00:33N 55°20' E 012°41'10 9.6
2016-Jan-24 23:33N 55°16' E 012°56'2110.5
2016-Jan-24 21:33N 55°15' E 013°34'1010.4
2016-Jan-24 20:33N 55°15' E 013°52'1010.4
2016-Jan-24 19:33N 55°14' E 014°10'10 9.5
2016-Jan-24 18:33N 55°19' E 014°24'1010.3
2016-Jan-24 17:33N 55°26' E 014°37'1010.4
2016-Jan-24 16:33N 55°31' E 014°53'1010.4
2016-Jan-24 15:33N 55°37' E 015°09'  
Track history (hours):
 
Tides and Currents Weather Stations Pressure Air Temp Water Temp Dewpoint Dewpoint Depression Visibility Wind Speed Wind Dir Waves Ship Positions

Flinterbothnia

Last reported at 2016-Feb-02 14:18 UTC. Time now 2016-Feb-06 11:42 UTC.
Position N 54°16' W 005°30'.

Length 82 m; draft 4.5 m.

Type: Cargo ship. MMSI: 244741000.

Date/timePositionNaut miles runAvg speedWind from/ knotsBaromVisibWave heightAir tempDewpointWater temp
2016-Feb-02 14:18N 54°16' W 005°30'7 9.7
2016-Feb-02 13:33N 54°22' W 005°24'1010.2
2016-Feb-02 12:33N 54°32' W 005°25'1110.8
2016-Feb-02 11:33N 54°42' W 005°32'1110.7
2016-Feb-02 10:33N 54°40' W 005°50'4 4.1
2016-Feb-02 09:31N 54°37' W 005°55'0 0.0
2016-Feb-02 07:09N 54°37' W 005°55'0 0.0
2016-Feb-02 05:33N 54°37' W 005°55'0 0.0
2016-Feb-02 03:21N 54°37' W 005°55'0 0.0
2016-Feb-02 02:33N 54°37' W 005°55'0 0.0
2016-Feb-02 01:27N 54°37' W 005°55'0 0.0
2016-Feb-01 15:09N 54°37' W 005°55'0 0.0
2016-Feb-01 09:33N 54°37' W 005°55'0 0.0
2016-Feb-01 08:14N 54°37' W 005°55'0 0.0
2016-Feb-01 07:31N 54°37' W 005°55'0 0.0
2016-Feb-01 06:32N 54°37' W 005°55'0 0.0
2016-Feb-01 05:31N 54°37' W 005°55'0 0.0
2016-Feb-01 04:30N 54°37' W 005°55'0 0.0
2016-Feb-01 03:32N 54°37' W 005°55'0 0.0
2016-Feb-01 02:33N 54°37' W 005°55'0 0.0
2016-Feb-01 01:31N 54°37' W 005°55'0 0.0
2016-Feb-01 00:32N 54°37' W 005°55'0 0.0
2016-Jan-31 23:31N 54°37' W 005°55'0 0.0
2016-Jan-31 22:29N 54°37' W 005°55'0 0.0
2016-Jan-31 20:09N 54°37' W 005°55'4 6.4
2016-Jan-31 19:33N 54°40' W 005°50'5 5.4
2016-Jan-31 18:33N 54°43' W 005°42'8 7.7
2016-Jan-31 17:33N 54°42' W 005°29'8 7.5
2016-Jan-31 16:33N 54°35' W 005°25'9 9.0
2016-Jan-31 15:33N 54°26' W 005°22'9 8.8
2016-Jan-31 14:33N 54°17' W 005°22'9 9.1
2016-Jan-31 13:33N 54°08' W 005°24'108 9.0
2016-Jan-31 01:33N 52°20' W 005°42'253 5.1
2016-Jan-28 23:33N 50°38' E 000°30'9 8.9
2016-Jan-28 22:33N 50°43' E 000°42'2311.3
2016-Jan-28 20:32N 50°56' E 001°11'1212.2
2016-Jan-28 19:33N 51°03' E 001°26'1111.0
2016-Jan-28 18:33N 51°10' E 001°40'1010.0
2016-Jan-28 17:33N 51°18' E 001°50'9 9.4
2016-Jan-28 16:34N 51°25' E 001°59'9 9.4
2016-Jan-28 15:33N 51°33' E 002°08'10 9.9
2016-Jan-28 14:33N 51°41' E 002°18'15410.1
2016-Jan-27 23:19N 53°45' E 004°46'15 8.5
2016-Jan-27 21:33N 53°59' E 004°56'8 7.2
2016-Jan-27 20:28N 54°06' E 005°01'6 6.7
2016-Jan-27 19:33N 54°12' E 005°07'5 5.4
2016-Jan-27 18:33N 54°16' E 005°12'6 4.6
2016-Jan-27 17:09N 54°22' E 005°17'255 5.9
2016-Jan-25 22:06N 57°40' E 010°04'5 9.4
2016-Jan-25 21:32N 57°43' E 010°13'10 9.7
2016-Jan-25 20:33N 57°46' E 010°30'13 9.1
2016-Jan-25 19:11N 57°46' E 010°54'610.3
2016-Jan-25 18:33N 57°43' E 011°05'1010.4
2016-Jan-25 17:33N 57°39' E 011°22'1010.2
2016-Jan-25 16:33N 57°35' E 011°40'0 0.3
2016-Jan-25 15:34N 57°35' E 011°41'0 0.0
2016-Jan-25 14:33N 57°35' E 011°41'6 6.2
2016-Jan-25 13:33N 57°29' E 011°41'1010.3
2016-Jan-25 12:33N 57°19' E 011°48'7310.5
2016-Jan-25 05:34N 56°10' E 012°30'1010.0
2016-Jan-25 04:33N 56°01' E 012°40'1010.0
2016-Jan-25 03:34N 55°51' E 012°43'1010.4
2016-Jan-25 02:33N 55°41' E 012°41'1010.1
2016-Jan-25 01:33N 55°31' E 012°43'1110.7
2016-Jan-25 00:33N 55°20' E 012°41'10 9.6
2016-Jan-24 23:33N 55°16' E 012°56'2110.5
2016-Jan-24 21:33N 55°15' E 013°34'1010.4
2016-Jan-24 20:33N 55°15' E 013°52'1010.4
2016-Jan-24 19:33N 55°14' E 014°10'10 9.5
2016-Jan-24 18:33N 55°19' E 014°24'1010.3
2016-Jan-24 17:33N 55°26' E 014°37'1010.4
2016-Jan-24 16:33N 55°31' E 014°53'1010.4
2016-Jan-24 15:33N 55°37' E 015°09'  

Dump ship's entire track history